الصفحة الرئيسية
METAR-TAF:

METAR-TAF

مطار :

Kuantan, ماليزيا

دائرة عرض: 03-37N, خط طول: 103-13E, ارتفاع: 18 متر

مراقبة الطقس الحالي

تاريخ ووقت الإصدار 46 دقيقة قبل الساعة 02:00UTC
ريح 8 عقدة من الجنوب الغربي, الاتجاه يتراوح بين الشرق/الجنوب الشرقي و الغرب
درجة الحرارة 29°درجة مئوية
الرطوبة 74%
ضغط 1011 hPa
الرؤية 10 كم أو أكثر
غيوم قليلة على ارتفاع 1800 قدم

METAR: WMKD 190200Z 23008KT 120V270 9999 FEW018 29/24 Q1011 NOSIG

زمن: 10:46 (02:46 UTC)


TAF: مفقودة

أرصاد الطقس والتوقعات من أكثر من 4000 مطار (تقارير الطقس للمطار METAR والتنبؤ بالطقس بالمطارTAF).

المحطات المتاحة هي النقط الصفراء والحمراء على الخريطة.

حرك المؤشر فوق النقطة لمعرفة اسم المحطة.

ثم انقر لمعرفة أرصاد وتوقعات الطقس.

لتغيير الخارطة: اضغط على الأزرار الخضراء مع رمز الصليب الأسود للتكبير. على الزر الأخضر مع شرطة للتصغير، أو على الأسهم الخضراء للخرائط المجاورة.


METAR-TAF: